Airfield :
LOGIN :

Register | Disclaimer

   EN    FR    IT 

 










Legend :    VFR   Marginal VFR   IFR   Intensive IFR   Very Intensive IFR
Visi :
Ceiling :
>= 8 km
>= 3000ft
5 to 8 km
1000 to 3000 ft
1500m to 5 km
500 to 1000 ft
800 to 1500m
200 to 500 ft
< 800m
< 200 ft
Symbols :   Thunderstorms  Fog  Heavy snow  Heavy precipitations  Wind > 20 kt
SIGMETs :     Misc.  Thunderstorms  Icing  Turbulence  Mountain Waves  Volcanic Ashes







- Airport Elevation : 587 ft
- IATA code : XCR
- Download approach charts


LFOK - Chalons Vatry

CURRENT METAR :
  • 191430Z AUTO VRB02KT 9999 2300 +RA BKN016/// BKN022/// BKN031/// ///CB 15/13 Q1006 TEMPO 4000 SHRA BKN013 BKN030CB

EXPIRED METARs :
  • 191400Z AUTO 01005KT 330V040 9999 FEW016/// BKN029/// BKN039/// ///CB 16/12 Q1006 TEMPO 4000 SHRA BKN013 BKN030CB
  • 191330Z AUTO 02007KT 9999 FEW014/// SCT037/// BKN046/// ///CB 16/13 Q1006 TEMPO 4000 SHRA BKN013 BKN030CB
  • 191300Z AUTO 02010KT 9999 BKN013/// BKN023/// BKN031/// ///CB 15/12 Q1006 TEMPO 4000 SHRA
  • 191230Z AUTO 04007KT 9999 FEW021/// BKN050/// OVC074/// ///CB 16/13 Q1006 TEMPO 4000 SHRA BKN013 BKN030CB
  • 191200Z AUTO 05010KT 9999 FEW016/// BKN021/// BKN027/// ///CB 15/12 Q1006 TEMPO 4000 SHRA BKN013 BKN030CB

TAF TAF LFOK
Valid from the 19 at 12:00 until the 20 at 12:00 UTC


191100Z 1912/2012 36007KT 9999 BKN020
TEMPO 1912/1919 4000 SHRA BKN013 BKN030CB
PROB40 1912/1919 TSRA
BECMG 1920/1923 OVC008
TEMPO 1923/2009 2000 DZ BR OVC003
BECMG 2009/2012 BKN016
No reported NOTAMs for that airfield.
1 SIGMET reported for the Paris FIR (LFFF) :
 
Embedded thunderstorms
LFFF SIGMET 4 VALID 191400/191600 LFPW
LFFF PARIS FIR/UIR EMBD TS OBS WI N4830 E00430 - N4815 E00400 - N4815 E00300 - N4830 E00200 - N4845 E00215 - N4830 E00300 - N4830 E00345 - N4845 E00415 - N4830 E00430 TOP FL330 MOV S 10KT NC=



MET'MAP, your aeronautical weather chart ! - Copyright ORBIFLY December 2007 - Disclaimer

ORBIFLY MET'MAP TEAM :

Programming & Development : Alexandra Zaïnal
Concept & Development : Baudouin d'Aumeries
Co-Development & Prog : Marc-Olivier Méhu
Technical & hardware support : Manuel Goepfert

Contact : metmap@orbifly.com




SOURCES & CREDITS :

   NOAA